sensor_id;sensor_type;location;lat;lon;timestamp;P1;durP1;ratioP1;P2;durP2;ratioP2
65825;SDS011;52586;-43.152;172.732;2022-08-21T00:02:25;2.75;;;1.90;;
65825;SDS011;52586;-43.152;172.732;2022-08-21T00:04:56;1.80;;;1.70;;
65825;SDS011;52586;-43.152;172.732;2022-08-21T00:07:27;1.80;;;1.65;;
65825;SDS011;52586;-43.152;172.732;2022-08-21T00:09:58;2.15;;;1.92;;
65825;SDS011;52586;-43.152;172.732;2022-08-21T00:12:30;2.10;;;1.90;;
65825;SDS011;52586;-43.152;172.732;2022-08-21T00:15:01;2.67;;;2.30;;
65825;SDS011;52586;-43.152;172.732;2022-08-21T00:17:33;2.72;;;2.15;;
65825;SDS011;52586;-43.152;172.732;2022-08-21T00:20:04;3.50;;;1.90;;
65825;SDS011;52586;-43.152;172.732;2022-08-21T00:22:37;2.90;;;2.10;;
65825;SDS011;52586;-43.152;172.732;2022-08-21T00:25:08;2.53;;;1.98;;
65825;SDS011;52586;-43.152;172.732;2022-08-21T00:27:42;2.42;;;2.08;;
65825;SDS011;52586;-43.152;172.732;2022-08-21T00:30:13;11.80;;;2.67;;
65825;SDS011;52586;-43.152;172.732;2022-08-21T00:32:45;3.67;;;2.33;;
65825;SDS011;52586;-43.152;172.732;2022-08-21T00:35:17;3.15;;;2.05;;
65825;SDS011;52586;-43.152;172.732;2022-08-21T00:37:50;4.25;;;2.00;;
65825;SDS011;52586;-43.152;172.732;2022-08-21T00:40:23;4.90;;;2.20;;
65825;SDS011;52586;-43.152;172.732;2022-08-21T00:42:56;3.20;;;2.00;;
65825;SDS011;52586;-43.152;172.732;2022-08-21T00:45:27;4.68;;;1.98;;
65825;SDS011;52586;-43.152;172.732;2022-08-21T00:47:59;2.95;;;1.83;;
65825;SDS011;52586;-43.152;172.732;2022-08-21T00:50:30;3.47;;;2.00;;
65825;SDS011;52586;-43.152;172.732;2022-08-21T00:53:03;3.80;;;1.98;;
65825;SDS011;52586;-43.152;172.732;2022-08-21T00:55:36;3.15;;;1.80;;
65825;SDS011;52586;-43.152;172.732;2022-08-21T00:58:11;2.35;;;1.90;;
65825;SDS011;52586;-43.152;172.732;2022-08-21T01:00:43;2.60;;;1.60;;
65825;SDS011;52586;-43.152;172.732;2022-08-21T01:03:16;2.97;;;1.70;;
65825;SDS011;52586;-43.152;172.732;2022-08-21T01:05:48;1.85;;;1.52;;
65825;SDS011;52586;-43.152;172.732;2022-08-21T01:08:19;3.40;;;2.03;;
65825;SDS011;52586;-43.152;172.732;2022-08-21T01:10:52;3.15;;;1.63;;
65825;SDS011;52586;-43.152;172.732;2022-08-21T01:13:26;2.63;;;2.00;;
65825;SDS011;52586;-43.152;172.732;2022-08-21T01:15:58;2.22;;;1.83;;
65825;SDS011;52586;-43.152;172.732;2022-08-21T01:18:31;3.30;;;1.92;;
65825;SDS011;52586;-43.152;172.732;2022-08-21T01:21:05;2.42;;;1.70;;
65825;SDS011;52586;-43.152;172.732;2022-08-21T01:23:39;2.65;;;1.67;;
65825;SDS011;52586;-43.152;172.732;2022-08-21T01:26:11;2.67;;;1.77;;
65825;SDS011;52586;-43.152;172.732;2022-08-21T01:28:46;2.67;;;1.73;;
65825;SDS011;52586;-43.152;172.732;2022-08-21T01:31:21;2.28;;;1.67;;
65825;SDS011;52586;-43.152;172.732;2022-08-21T01:33:54;2.03;;;1.50;;
65825;SDS011;52586;-43.152;172.732;2022-08-21T01:36:27;3.33;;;1.60;;
65825;SDS011;52586;-43.152;172.732;2022-08-21T01:38:58;3.22;;;1.65;;
65825;SDS011;52586;-43.152;172.732;2022-08-21T01:41:28;2.53;;;1.52;;
65825;SDS011;52586;-43.152;172.732;2022-08-21T01:43:59;2.50;;;1.70;;
65825;SDS011;52586;-43.152;172.732;2022-08-21T01:46:30;1.85;;;1.67;;
65825;SDS011;52586;-43.152;172.732;2022-08-21T01:49:01;2.58;;;1.58;;
65825;SDS011;52586;-43.152;172.732;2022-08-21T01:51:34;3.20;;;1.75;;
65825;SDS011;52586;-43.152;172.732;2022-08-21T01:54:05;2.20;;;1.50;;
65825;SDS011;52586;-43.152;172.732;2022-08-21T01:56:37;2.33;;;1.83;;
65825;SDS011;52586;-43.152;172.732;2022-08-21T01:59:11;4.00;;;1.95;;
65825;SDS011;52586;-43.152;172.732;2022-08-21T02:01:42;4.72;;;2.33;;
65825;SDS011;52586;-43.152;172.732;2022-08-21T02:04:13;3.13;;;2.10;;
65825;SDS011;52586;-43.152;172.732;2022-08-21T02:06:45;3.78;;;2.35;;
65825;SDS011;52586;-43.152;172.732;2022-08-21T02:09:17;4.32;;;2.60;;
65825;SDS011;52586;-43.152;172.732;2022-08-21T02:11:49;3.20;;;2.25;;
65825;SDS011;52586;-43.152;172.732;2022-08-21T02:14:20;3.10;;;2.80;;
65825;SDS011;52586;-43.152;172.732;2022-08-21T02:16:50;3.30;;;2.80;;
65825;SDS011;52586;-43.152;172.732;2022-08-21T02:19:21;3.25;;;2.67;;
65825;SDS011;52586;-43.152;172.732;2022-08-21T02:21:54;2.55;;;2.28;;
65825;SDS011;52586;-43.152;172.732;2022-08-21T02:24:25;3.90;;;2.90;;
65825;SDS011;52586;-43.152;172.732;2022-08-21T02:26:56;3.25;;;2.65;;
65825;SDS011;52586;-43.152;172.732;2022-08-21T02:29:27;2.80;;;2.40;;
65825;SDS011;52586;-43.152;172.732;2022-08-21T02:31:57;3.03;;;2.70;;
65825;SDS011;52586;-43.152;172.732;2022-08-21T02:34:28;2.83;;;2.53;;
65825;SDS011;52586;-43.152;172.732;2022-08-21T02:37:01;2.70;;;2.45;;
65825;SDS011;52586;-43.152;172.732;2022-08-21T02:39:33;3.20;;;2.90;;
65825;SDS011;52586;-43.152;172.732;2022-08-21T02:42:03;3.85;;;3.00;;
65825;SDS011;52586;-43.152;172.732;2022-08-21T02:44:34;4.07;;;3.42;;
65825;SDS011;52586;-43.152;172.732;2022-08-21T02:47:06;4.03;;;3.08;;
65825;SDS011;52586;-43.152;172.732;2022-08-21T02:49:37;3.72;;;3.03;;
65825;SDS011;52586;-43.152;172.732;2022-08-21T02:52:09;2.95;;;2.72;;
65825;SDS011;52586;-43.152;172.732;2022-08-21T02:54:40;3.25;;;2.95;;
65825;SDS011;52586;-43.152;172.732;2022-08-21T02:57:11;3.20;;;2.72;;
65825;SDS011;52586;-43.152;172.732;2022-08-21T02:59:42;3.42;;;3.13;;
65825;SDS011;52586;-43.152;172.732;2022-08-21T03:02:13;3.35;;;2.80;;
65825;SDS011;52586;-43.152;172.732;2022-08-21T03:04:44;4.07;;;3.30;;
65825;SDS011;52586;-43.152;172.732;2022-08-21T03:07:16;4.35;;;3.35;;
65825;SDS011;52586;-43.152;172.732;2022-08-21T03:09:47;3.40;;;3.10;;
65825;SDS011;52586;-43.152;172.732;2022-08-21T03:12:18;3.85;;;3.45;;
65825;SDS011;52586;-43.152;172.732;2022-08-21T03:14:49;4.70;;;4.20;;
65825;SDS011;52586;-43.152;172.732;2022-08-21T03:17:20;4.25;;;3.85;;
65825;SDS011;52586;-43.152;172.732;2022-08-21T03:19:50;4.10;;;3.70;;
65825;SDS011;52586;-43.152;172.732;2022-08-21T03:22:23;3.90;;;3.50;;
65825;SDS011;52586;-43.152;172.732;2022-08-21T03:24:54;4.25;;;3.50;;
65825;SDS011;52586;-43.152;172.732;2022-08-21T03:27:25;3.88;;;3.50;;
65825;SDS011;52586;-43.152;172.732;2022-08-21T03:29:57;5.30;;;3.67;;
65825;SDS011;52586;-43.152;172.732;2022-08-21T03:32:27;3.95;;;3.35;;
65825;SDS011;52586;-43.152;172.732;2022-08-21T03:34:58;4.03;;;3.53;;
65825;SDS011;52586;-43.152;172.732;2022-08-21T03:37:31;3.70;;;3.40;;
65825;SDS011;52586;-43.152;172.732;2022-08-21T03:40:02;4.32;;;3.90;;
65825;SDS011;52586;-43.152;172.732;2022-08-21T03:42:34;4.25;;;3.65;;
65825;SDS011;52586;-43.152;172.732;2022-08-21T03:45:05;4.00;;;3.53;;
65825;SDS011;52586;-43.152;172.732;2022-08-21T03:47:36;4.15;;;3.70;;
65825;SDS011;52586;-43.152;172.732;2022-08-21T03:50:07;4.07;;;3.55;;
65825;SDS011;52586;-43.152;172.732;2022-08-21T03:52:40;5.15;;;3.75;;
65825;SDS011;52586;-43.152;172.732;2022-08-21T03:55:11;4.20;;;3.80;;
65825;SDS011;52586;-43.152;172.732;2022-08-21T03:57:41;3.97;;;3.47;;
65825;SDS011;52586;-43.152;172.732;2022-08-21T04:00:13;4.00;;;3.60;;
65825;SDS011;52586;-43.152;172.732;2022-08-21T04:02:45;4.55;;;3.78;;
65825;SDS011;52586;-43.152;172.732;2022-08-21T04:05:16;3.63;;;3.33;;
65825;SDS011;52586;-43.152;172.732;2022-08-21T04:07:55;3.95;;;3.55;;
65825;SDS011;52586;-43.152;172.732;2022-08-21T04:10:27;3.88;;;3.50;;
65825;SDS011;52586;-43.152;172.732;2022-08-21T04:13:00;4.57;;;3.47;;
65825;SDS011;52586;-43.152;172.732;2022-08-21T04:15:31;3.50;;;3.20;;
65825;SDS011;52586;-43.152;172.732;2022-08-21T04:18:03;4.80;;;4.07;;
65825;SDS011;52586;-43.152;172.732;2022-08-21T04:20:34;4.10;;;3.63;;
65825;SDS011;52586;-43.152;172.732;2022-08-21T04:23:07;4.28;;;3.85;;
65825;SDS011;52586;-43.152;172.732;2022-08-21T04:25:37;4.18;;;3.78;;
65825;SDS011;52586;-43.152;172.732;2022-08-21T04:28:08;4.32;;;3.88;;
65825;SDS011;52586;-43.152;172.732;2022-08-21T04:30:39;4.05;;;3.75;;
65825;SDS011;52586;-43.152;172.732;2022-08-21T04:33:10;4.28;;;3.88;;
65825;SDS011;52586;-43.152;172.732;2022-08-21T04:35:41;4.18;;;3.80;;
65825;SDS011;52586;-43.152;172.732;2022-08-21T04:38:13;4.25;;;3.85;;
65825;SDS011;52586;-43.152;172.732;2022-08-21T04:40:44;4.30;;;3.90;;
65825;SDS011;52586;-43.152;172.732;2022-08-21T04:43:16;4.28;;;3.88;;
65825;SDS011;52586;-43.152;172.732;2022-08-21T04:45:48;4.20;;;3.80;;
65825;SDS011;52586;-43.152;172.732;2022-08-21T04:48:20;3.72;;;3.38;;
65825;SDS011;52586;-43.152;172.732;2022-08-21T04:50:53;4.35;;;3.95;;
65825;SDS011;52586;-43.152;172.732;2022-08-21T04:53:29;4.28;;;3.92;;
65825;SDS011;52586;-43.152;172.732;2022-08-21T04:56:03;4.05;;;3.65;;
65825;SDS011;52586;-43.152;172.732;2022-08-21T04:58:36;4.00;;;3.70;;
65825;SDS011;52586;-43.152;172.732;2022-08-21T05:01:09;4.45;;;4.05;;
65825;SDS011;52586;-43.152;172.732;2022-08-21T05:03:47;4.50;;;4.10;;
65825;SDS011;52586;-43.152;172.732;2022-08-21T05:06:21;3.60;;;3.30;;
65825;SDS011;52586;-43.152;172.732;2022-08-21T05:08:54;5.13;;;4.32;;
65825;SDS011;52586;-43.152;172.732;2022-08-21T05:11:26;9.55;;;4.45;;
65825;SDS011;52586;-43.152;172.732;2022-08-21T05:13:58;6.80;;;5.07;;
65825;SDS011;52586;-43.152;172.732;2022-08-21T05:16:29;8.50;;;4.90;;
65825;SDS011;52586;-43.152;172.732;2022-08-21T05:18:59;6.47;;;4.22;;
65825;SDS011;52586;-43.152;172.732;2022-08-21T05:21:30;7.38;;;5.10;;
65825;SDS011;52586;-43.152;172.732;2022-08-21T05:24:03;5.90;;;4.20;;
65825;SDS011;52586;-43.152;172.732;2022-08-21T05:26:34;6.78;;;4.65;;
65825;SDS011;52586;-43.152;172.732;2022-08-21T05:29:05;5.32;;;4.63;;
65825;SDS011;52586;-43.152;172.732;2022-08-21T05:31:37;7.88;;;5.30;;
65825;SDS011;52586;-43.152;172.732;2022-08-21T05:34:08;5.80;;;5.20;;
65825;SDS011;52586;-43.152;172.732;2022-08-21T05:36:38;6.28;;;4.75;;
65825;SDS011;52586;-43.152;172.732;2022-08-21T05:39:11;6.95;;;4.80;;
65825;SDS011;52586;-43.152;172.732;2022-08-21T05:41:42;7.30;;;4.90;;
65825;SDS011;52586;-43.152;172.732;2022-08-21T05:44:13;7.50;;;4.80;;
65825;SDS011;52586;-43.152;172.732;2022-08-21T05:46:44;6.45;;;4.82;;
65825;SDS011;52586;-43.152;172.732;2022-08-21T05:49:15;5.95;;;4.85;;
65825;SDS011;52586;-43.152;172.732;2022-08-21T05:51:45;6.70;;;5.25;;
65825;SDS011;52586;-43.152;172.732;2022-08-21T05:54:18;8.85;;;5.78;;
65825;SDS011;52586;-43.152;172.732;2022-08-21T05:56:49;6.53;;;4.97;;
65825;SDS011;52586;-43.152;172.732;2022-08-21T05:59:19;7.45;;;5.22;;
65825;SDS011;52586;-43.152;172.732;2022-08-21T06:01:50;6.72;;;4.93;;
65825;SDS011;52586;-43.152;172.732;2022-08-21T06:04:21;6.45;;;4.90;;
65825;SDS011;52586;-43.152;172.732;2022-08-21T06:06:51;7.00;;;5.45;;
65825;SDS011;52586;-43.152;172.732;2022-08-21T06:09:24;6.82;;;5.43;;
65825;SDS011;52586;-43.152;172.732;2022-08-21T06:11:55;6.93;;;5.32;;
65825;SDS011;52586;-43.152;172.732;2022-08-21T06:14:25;6.90;;;5.47;;
65825;SDS011;52586;-43.152;172.732;2022-08-21T06:17:01;7.57;;;5.13;;
65825;SDS011;52586;-43.152;172.732;2022-08-21T06:19:32;7.00;;;5.28;;
65825;SDS011;52586;-43.152;172.732;2022-08-21T06:22:03;7.95;;;5.50;;
65825;SDS011;52586;-43.152;172.732;2022-08-21T06:24:36;7.15;;;5.43;;
65825;SDS011;52586;-43.152;172.732;2022-08-21T06:27:07;7.40;;;5.25;;
65825;SDS011;52586;-43.152;172.732;2022-08-21T06:29:38;7.10;;;5.10;;
65825;SDS011;52586;-43.152;172.732;2022-08-21T06:32:10;7.18;;;5.38;;
65825;SDS011;52586;-43.152;172.732;2022-08-21T06:34:42;7.72;;;5.60;;
65825;SDS011;52586;-43.152;172.732;2022-08-21T06:37:12;7.22;;;4.60;;
65825;SDS011;52586;-43.152;172.732;2022-08-21T06:39:45;7.03;;;5.43;;
65825;SDS011;52586;-43.152;172.732;2022-08-21T06:42:15;6.85;;;5.38;;
65825;SDS011;52586;-43.152;172.732;2022-08-21T06:44:46;6.63;;;5.07;;
65825;SDS011;52586;-43.152;172.732;2022-08-21T06:47:17;7.93;;;5.85;;
65825;SDS011;52586;-43.152;172.732;2022-08-21T06:49:48;7.15;;;5.53;;
65825;SDS011;52586;-43.152;172.732;2022-08-21T06:52:19;6.85;;;5.40;;
65825;SDS011;52586;-43.152;172.732;2022-08-21T06:54:51;7.00;;;5.70;;
65825;SDS011;52586;-43.152;172.732;2022-08-21T06:57:22;8.25;;;5.70;;
65825;SDS011;52586;-43.152;172.732;2022-08-21T06:59:53;7.60;;;5.38;;
65825;SDS011;52586;-43.152;172.732;2022-08-21T07:02:24;6.78;;;5.45;;
65825;SDS011;52586;-43.152;172.732;2022-08-21T07:04:55;7.25;;;5.38;;
65825;SDS011;52586;-43.152;172.732;2022-08-21T07:07:26;6.35;;;5.18;;
65825;SDS011;52586;-43.152;172.732;2022-08-21T07:10:00;7.57;;;5.45;;
65825;SDS011;52586;-43.152;172.732;2022-08-21T07:12:31;6.70;;;5.40;;
65825;SDS011;52586;-43.152;172.732;2022-08-21T07:15:02;8.32;;;5.45;;
65825;SDS011;52586;-43.152;172.732;2022-08-21T07:17:33;6.60;;;5.75;;
65825;SDS011;52586;-43.152;172.732;2022-08-21T07:20:04;8.40;;;5.93;;
65825;SDS011;52586;-43.152;172.732;2022-08-21T07:22:36;7.15;;;5.72;;
65825;SDS011;52586;-43.152;172.732;2022-08-21T07:25:11;7.78;;;5.50;;
65825;SDS011;52586;-43.152;172.732;2022-08-21T07:27:41;5.85;;;5.10;;
65825;SDS011;52586;-43.152;172.732;2022-08-21T07:30:12;8.25;;;5.70;;
65825;SDS011;52586;-43.152;172.732;2022-08-21T07:32:43;6.45;;;4.97;;
65825;SDS011;52586;-43.152;172.732;2022-08-21T07:35:15;6.63;;;5.22;;
65825;SDS011;52586;-43.152;172.732;2022-08-21T07:37:46;7.72;;;6.03;;
65825;SDS011;52586;-43.152;172.732;2022-08-21T07:40:19;7.18;;;5.57;;
65825;SDS011;52586;-43.152;172.732;2022-08-21T07:42:50;7.38;;;5.85;;
65825;SDS011;52586;-43.152;172.732;2022-08-21T07:45:21;7.32;;;5.80;;
65825;SDS011;52586;-43.152;172.732;2022-08-21T07:47:52;7.60;;;5.78;;
65825;SDS011;52586;-43.152;172.732;2022-08-21T07:50:23;6.38;;;5.30;;
65825;SDS011;52586;-43.152;172.732;2022-08-21T07:52:54;7.45;;;5.50;;
65825;SDS011;52586;-43.152;172.732;2022-08-21T07:55:27;6.97;;;5.90;;
65825;SDS011;52586;-43.152;172.732;2022-08-21T07:57:57;6.72;;;5.97;;
65825;SDS011;52586;-43.152;172.732;2022-08-21T08:00:28;6.20;;;5.53;;
65825;SDS011;52586;-43.152;172.732;2022-08-21T08:02:59;7.93;;;6.60;;
65825;SDS011;52586;-43.152;172.732;2022-08-21T08:05:30;6.68;;;5.95;;
65825;SDS011;52586;-43.152;172.732;2022-08-21T08:08:03;8.00;;;5.95;;
65825;SDS011;52586;-43.152;172.732;2022-08-21T08:10:35;7.32;;;5.72;;
65825;SDS011;52586;-43.152;172.732;2022-08-21T08:13:07;6.88;;;5.82;;
65825;SDS011;52586;-43.152;172.732;2022-08-21T08:15:38;6.10;;;5.50;;
65825;SDS011;52586;-43.152;172.732;2022-08-21T08:18:09;7.38;;;6.07;;
65825;SDS011;52586;-43.152;172.732;2022-08-21T08:20:39;8.18;;;5.97;;
65825;SDS011;52586;-43.152;172.732;2022-08-21T08:23:11;9.63;;;6.25;;
65825;SDS011;52586;-43.152;172.732;2022-08-21T08:25:44;7.40;;;5.93;;
65825;SDS011;52586;-43.152;172.732;2022-08-21T08:28:14;6.97;;;5.95;;
65825;SDS011;52586;-43.152;172.732;2022-08-21T08:30:45;6.78;;;5.93;;
65825;SDS011;52586;-43.152;172.732;2022-08-21T08:33:16;7.45;;;6.10;;
65825;SDS011;52586;-43.152;172.732;2022-08-21T08:35:48;6.38;;;5.78;;
65825;SDS011;52586;-43.152;172.732;2022-08-21T08:38:20;7.90;;;6.03;;
65825;SDS011;52586;-43.152;172.732;2022-08-21T08:40:55;8.02;;;5.97;;
65825;SDS011;52586;-43.152;172.732;2022-08-21T08:43:34;8.10;;;6.00;;
65825;SDS011;52586;-43.152;172.732;2022-08-21T08:46:05;5.78;;;5.18;;
65825;SDS011;52586;-43.152;172.732;2022-08-21T08:48:44;6.95;;;5.93;;
65825;SDS011;52586;-43.152;172.732;2022-08-21T08:51:21;7.63;;;5.82;;
65825;SDS011;52586;-43.152;172.732;2022-08-21T08:53:55;10.02;;;6.97;;
65825;SDS011;52586;-43.152;172.732;2022-08-21T08:56:31;9.85;;;7.22;;
65825;SDS011;52586;-43.152;172.732;2022-08-21T08:59:05;8.30;;;6.68;;
65825;SDS011;52586;-43.152;172.732;2022-08-21T09:01:42;8.23;;;6.90;;
65825;SDS011;52586;-43.152;172.732;2022-08-21T09:04:12;9.90;;;6.90;;
65825;SDS011;52586;-43.152;172.732;2022-08-21T09:06:58;9.48;;;7.18;;
65825;SDS011;52586;-43.152;172.732;2022-08-21T09:09:41;9.13;;;7.43;;
65825;SDS011;52586;-43.152;172.732;2022-08-21T09:12:25;8.82;;;7.10;;
65825;SDS011;52586;-43.152;172.732;2022-08-21T09:15:05;9.85;;;7.15;;
65825;SDS011;52586;-43.152;172.732;2022-08-21T09:17:46;7.55;;;6.75;;
65825;SDS011;52586;-43.152;172.732;2022-08-21T09:20:38;8.18;;;6.90;;
65825;SDS011;52586;-43.152;172.732;2022-08-21T09:23:19;9.50;;;7.43;;
65825;SDS011;52586;-43.152;172.732;2022-08-21T09:26:00;9.05;;;7.10;;
65825;SDS011;52586;-43.152;172.732;2022-08-21T09:28:37;8.82;;;6.65;;
65825;SDS011;52586;-43.152;172.732;2022-08-21T10:30:44;8.38;;;7.47;;
65825;SDS011;52586;-43.152;172.732;2022-08-21T10:33:23;8.82;;;7.07;;
65825;SDS011;52586;-43.152;172.732;2022-08-21T10:36:03;9.73;;;8.02;;
65825;SDS011;52586;-43.152;172.732;2022-08-21T10:41:40;8.88;;;7.07;;
65825;SDS011;52586;-43.152;172.732;2022-08-21T10:44:35;10.88;;;7.78;;
65825;SDS011;52586;-43.152;172.732;2022-08-21T10:47:17;11.77;;;7.40;;
65825;SDS011;52586;-43.152;172.732;2022-08-21T10:49:53;8.57;;;7.10;;
65825;SDS011;52586;-43.152;172.732;2022-08-21T10:52:34;8.20;;;6.68;;
65825;SDS011;52586;-43.152;172.732;2022-08-21T10:55:18;8.68;;;7.40;;
65825;SDS011;52586;-43.152;172.732;2022-08-21T10:57:51;9.02;;;7.45;;
65825;SDS011;52586;-43.152;172.732;2022-08-21T11:00:28;7.95;;;7.15;;
65825;SDS011;52586;-43.152;172.732;2022-08-21T11:03:07;7.85;;;6.63;;
65825;SDS011;52586;-43.152;172.732;2022-08-21T11:05:40;9.02;;;7.32;;
65825;SDS011;52586;-43.152;172.732;2022-08-21T11:08:17;7.55;;;6.60;;
65825;SDS011;52586;-43.152;172.732;2022-08-21T11:10:55;8.77;;;7.00;;
65825;SDS011;52586;-43.152;172.732;2022-08-21T11:13:30;8.77;;;6.95;;
65825;SDS011;52586;-43.152;172.732;2022-08-21T11:16:07;8.77;;;6.75;;
65825;SDS011;52586;-43.152;172.732;2022-08-21T11:18:49;7.35;;;6.63;;
65825;SDS011;52586;-43.152;172.732;2022-08-21T11:21:27;7.78;;;6.78;;
65825;SDS011;52586;-43.152;172.732;2022-08-21T11:24:12;8.65;;;6.45;;
65825;SDS011;52586;-43.152;172.732;2022-08-21T11:26:54;7.45;;;6.63;;
65825;SDS011;52586;-43.152;172.732;2022-08-21T11:29:31;7.72;;;6.65;;
65825;SDS011;52586;-43.152;172.732;2022-08-21T11:32:07;8.38;;;6.85;;
65825;SDS011;52586;-43.152;172.732;2022-08-21T11:34:58;7.75;;;6.88;;
65825;SDS011;52586;-43.152;172.732;2022-08-21T11:37:42;9.75;;;6.85;;
65825;SDS011;52586;-43.152;172.732;2022-08-21T11:40:24;6.90;;;6.18;;
65825;SDS011;52586;-43.152;172.732;2022-08-21T11:43:07;8.43;;;6.82;;
65825;SDS011;52586;-43.152;172.732;2022-08-21T11:45:45;9.45;;;7.25;;
65825;SDS011;52586;-43.152;172.732;2022-08-21T11:48:26;6.85;;;6.07;;
65825;SDS011;52586;-43.152;172.732;2022-08-21T11:51:07;7.50;;;6.65;;
65825;SDS011;52586;-43.152;172.732;2022-08-21T11:53:42;6.88;;;5.97;;
65825;SDS011;52586;-43.152;172.732;2022-08-21T11:56:21;7.60;;;6.35;;
65825;SDS011;52586;-43.152;172.732;2022-08-21T11:58:56;9.25;;;6.57;;
65825;SDS011;52586;-43.152;172.732;2022-08-21T12:01:30;7.25;;;6.13;;
65825;SDS011;52586;-43.152;172.732;2022-08-21T12:04:07;7.70;;;6.50;;
65825;SDS011;52586;-43.152;172.732;2022-08-21T12:06:47;7.53;;;6.10;;
65825;SDS011;52586;-43.152;172.732;2022-08-21T12:09:29;7.72;;;6.82;;
65825;SDS011;52586;-43.152;172.732;2022-08-21T12:12:03;8.48;;;7.03;;
65825;SDS011;52586;-43.152;172.732;2022-08-21T12:14:42;7.97;;;6.10;;
65825;SDS011;52586;-43.152;172.732;2022-08-21T12:17:17;7.30;;;6.20;;
65825;SDS011;52586;-43.152;172.732;2022-08-21T12:19:57;7.38;;;6.57;;
65825;SDS011;52586;-43.152;172.732;2022-08-21T12:22:38;6.55;;;5.75;;
65825;SDS011;52586;-43.152;172.732;2022-08-21T12:25:10;7.47;;;6.50;;
65825;SDS011;52586;-43.152;172.732;2022-08-21T12:27:47;7.13;;;5.90;;
65825;SDS011;52586;-43.152;172.732;2022-08-21T12:30:22;7.00;;;5.90;;
65825;SDS011;52586;-43.152;172.732;2022-08-21T12:33:04;7.32;;;6.53;;
65825;SDS011;52586;-43.152;172.732;2022-08-21T12:35:47;6.22;;;5.38;;
65825;SDS011;52586;-43.152;172.732;2022-08-21T12:38:21;7.05;;;5.93;;
65825;SDS011;52586;-43.152;172.732;2022-08-21T12:40:55;6.55;;;5.82;;
65825;SDS011;52586;-43.152;172.732;2022-08-21T12:43:30;7.05;;;5.82;;
65825;SDS011;52586;-43.152;172.732;2022-08-21T12:46:03;6.25;;;5.65;;
65825;SDS011;52586;-43.152;172.732;2022-08-21T12:48:39;7.00;;;6.13;;
65825;SDS011;52586;-43.152;172.732;2022-08-21T12:51:16;7.03;;;5.50;;
65825;SDS011;52586;-43.152;172.732;2022-08-21T12:53:50;8.23;;;6.13;;
65825;SDS011;52586;-43.152;172.732;2022-08-21T12:56:33;6.50;;;5.80;;
65825;SDS011;52586;-43.152;172.732;2022-08-21T12:59:06;7.38;;;5.90;;
65825;SDS011;52586;-43.152;172.732;2022-08-21T13:01:45;7.07;;;5.90;;
65825;SDS011;52586;-43.152;172.732;2022-08-21T13:04:17;6.15;;;5.40;;
65825;SDS011;52586;-43.152;172.732;2022-08-21T13:06:52;6.65;;;5.57;;
65825;SDS011;52586;-43.152;172.732;2022-08-21T13:09:27;5.80;;;5.10;;
65825;SDS011;52586;-43.152;172.732;2022-08-21T13:12:01;6.85;;;5.80;;
65825;SDS011;52586;-43.152;172.732;2022-08-21T13:14:37;7.13;;;6.03;;
65825;SDS011;52586;-43.152;172.732;2022-08-21T13:17:10;6.57;;;5.93;;
65825;SDS011;52586;-43.152;172.732;2022-08-21T13:19:42;7.95;;;5.70;;
65825;SDS011;52586;-43.152;172.732;2022-08-21T13:22:24;7.20;;;5.38;;
65825;SDS011;52586;-43.152;172.732;2022-08-21T13:24:56;6.13;;;5.20;;
65825;SDS011;52586;-43.152;172.732;2022-08-21T13:27:29;6.57;;;5.28;;
65825;SDS011;52586;-43.152;172.732;2022-08-21T13:30:01;7.47;;;6.07;;
65825;SDS011;52586;-43.152;172.732;2022-08-21T13:32:34;8.25;;;6.00;;
65825;SDS011;52586;-43.152;172.732;2022-08-21T13:35:09;6.47;;;5.28;;
65825;SDS011;52586;-43.152;172.732;2022-08-21T13:37:41;7.82;;;5.57;;
65825;SDS011;52586;-43.152;172.732;2022-08-21T13:40:14;5.70;;;5.07;;
65825;SDS011;52586;-43.152;172.732;2022-08-21T13:42:49;8.10;;;6.03;;
65825;SDS011;52586;-43.152;172.732;2022-08-21T13:45:23;6.47;;;5.10;;
65825;SDS011;52586;-43.152;172.732;2022-08-21T13:47:55;6.72;;;5.32;;
65825;SDS011;52586;-43.152;172.732;2022-08-21T13:50:28;6.82;;;5.60;;
65825;SDS011;52586;-43.152;172.732;2022-08-21T13:52:59;7.13;;;5.40;;
65825;SDS011;52586;-43.152;172.732;2022-08-21T13:55:36;6.57;;;5.55;;
65825;SDS011;52586;-43.152;172.732;2022-08-21T13:58:10;8.73;;;5.93;;
65825;SDS011;52586;-43.152;172.732;2022-08-21T14:00:45;7.30;;;5.63;;
65825;SDS011;52586;-43.152;172.732;2022-08-21T14:03:26;5.60;;;4.90;;
65825;SDS011;52586;-43.152;172.732;2022-08-21T14:06:02;7.22;;;5.28;;
65825;SDS011;52586;-43.152;172.732;2022-08-21T14:08:40;7.63;;;5.47;;
65825;SDS011;52586;-43.152;172.732;2022-08-21T14:11:15;8.05;;;5.80;;
65825;SDS011;52586;-43.152;172.732;2022-08-21T14:13:49;6.97;;;5.55;;
65825;SDS011;52586;-43.152;172.732;2022-08-21T14:16:28;7.05;;;5.25;;
65825;SDS011;52586;-43.152;172.732;2022-08-21T14:19:19;7.00;;;5.50;;
65825;SDS011;52586;-43.152;172.732;2022-08-21T14:21:51;6.72;;;5.32;;
65825;SDS011;52586;-43.152;172.732;2022-08-21T14:24:26;7.28;;;5.30;;
65825;SDS011;52586;-43.152;172.732;2022-08-21T14:27:02;7.13;;;5.57;;
65825;SDS011;52586;-43.152;172.732;2022-08-21T14:29:36;7.43;;;5.45;;
65825;SDS011;52586;-43.152;172.732;2022-08-21T14:32:10;6.63;;;5.30;;
65825;SDS011;52586;-43.152;172.732;2022-08-21T14:34:43;5.85;;;4.72;;
65825;SDS011;52586;-43.152;172.732;2022-08-21T14:37:14;5.13;;;4.60;;
65825;SDS011;52586;-43.152;172.732;2022-08-21T14:39:45;6.63;;;4.70;;
65825;SDS011;52586;-43.152;172.732;2022-08-21T14:42:15;7.65;;;5.18;;
65825;SDS011;52586;-43.152;172.732;2022-08-21T14:44:48;5.45;;;4.78;;
65825;SDS011;52586;-43.152;172.732;2022-08-21T14:47:19;4.55;;;4.10;;
65825;SDS011;52586;-43.152;172.732;2022-08-21T14:49:49;6.85;;;4.88;;
65825;SDS011;52586;-43.152;172.732;2022-08-21T14:52:21;5.70;;;5.10;;
65825;SDS011;52586;-43.152;172.732;2022-08-21T14:54:51;6.25;;;4.93;;
65825;SDS011;52586;-43.152;172.732;2022-08-21T14:57:29;5.47;;;4.40;;
65825;SDS011;52586;-43.152;172.732;2022-08-21T15:00:02;5.75;;;5.10;;
65825;SDS011;52586;-43.152;172.732;2022-08-21T15:02:34;6.57;;;4.70;;
65825;SDS011;52586;-43.152;172.732;2022-08-21T15:05:05;6.55;;;4.82;;
65825;SDS011;52586;-43.152;172.732;2022-08-21T15:07:36;6.13;;;4.88;;
65825;SDS011;52586;-43.152;172.732;2022-08-21T15:10:07;5.82;;;4.78;;
65825;SDS011;52586;-43.152;172.732;2022-08-21T15:12:39;7.65;;;5.68;;
65825;SDS011;52586;-43.152;172.732;2022-08-21T15:15:12;4.97;;;4.43;;
65825;SDS011;52586;-43.152;172.732;2022-08-21T15:17:42;6.00;;;4.72;;
65825;SDS011;52586;-43.152;172.732;2022-08-21T15:20:13;5.70;;;4.90;;
65825;SDS011;52586;-43.152;172.732;2022-08-21T15:22:44;6.75;;;4.80;;
65825;SDS011;52586;-43.152;172.732;2022-08-21T15:25:14;5.28;;;4.35;;
65825;SDS011;52586;-43.152;172.732;2022-08-21T15:27:45;4.90;;;4.28;;
65825;SDS011;52586;-43.152;172.732;2022-08-21T15:30:18;8.43;;;5.07;;
65825;SDS011;52586;-43.152;172.732;2022-08-21T15:32:53;7.22;;;5.05;;
65825;SDS011;52586;-43.152;172.732;2022-08-21T15:35:24;5.78;;;4.60;;
65825;SDS011;52586;-43.152;172.732;2022-08-21T15:37:54;6.35;;;4.90;;
65825;SDS011;52586;-43.152;172.732;2022-08-21T15:40:25;7.13;;;4.70;;
65825;SDS011;52586;-43.152;172.732;2022-08-21T15:42:58;5.57;;;4.32;;
65825;SDS011;52586;-43.152;172.732;2022-08-21T15:45:32;4.95;;;4.45;;
65825;SDS011;52586;-43.152;172.732;2022-08-21T15:48:03;5.07;;;4.57;;